Time;durP1;ratioP1;P1;durP2;ratioP2;P2;SDS_P1;SDS_P2;PMS_P1;PMS_P2;Temp;Humidity;BMP_temperature;BMP_pressure;BME280_temperature;BME280_humidity;BME280_pressure;Samples;Min_cycle;Max_cycle;Signal;HPM_P1;HPM_P2
2021/04/05 00:00:24;;;;;;;6.18;2.80;;;8.10;56.20;;;;;;6243044;23;20004;-76
2021/04/05 00:02:49;;;;;;;4.20;2.70;;;8.20;56.40;;;;;;6245498;22;20463;-76
2021/04/05 00:05:23;;;;;;;8.95;2.90;;;8.10;56.60;;;;;;6269010;22;20042;-77
2021/04/05 00:07:49;;;;;;;3.97;2.60;;;8.10;56.80;;;;;;6245464;23;20003;-76
2021/04/05 00:10:46;;;;;;;9.82;3.38;;;8.20;56.70;;;;;;6244983;22;20100;-76
2021/04/05 00:13:15;;;;;;;6.40;3.13;;;8.10;57.20;;;;;;6219677;23;20012;-76
2021/04/05 00:15:41;;;;;;;4.83;2.70;;;8.10;57.00;;;;;;6244915;23;20070;-75
2021/04/05 00:18:06;;;;;;;6.43;2.80;;;8.10;56.80;;;;;;6247762;23;20075;-75
2021/04/05 00:20:37;;;;;;;7.50;2.67;;;8.10;56.90;;;;;;6244915;23;20377;-76
2021/04/05 00:23:03;;;;;;;7.30;3.07;;;8.10;57.00;;;;;;6247664;22;20028;-76
2021/04/05 00:25:30;;;;;;;7.27;3.27;;;8.10;57.10;;;;;;6245012;23;20009;-76
2021/04/05 00:27:56;;;;;;;4.73;2.90;;;8.10;57.10;;;;;;6246851;23;19996;-75
2021/04/05 00:30:27;;;;;;;8.00;2.60;;;8.10;57.20;;;;;;6270168;22;20070;-76
2021/04/05 00:32:53;;;;;;;6.43;2.60;;;8.10;57.20;;;;;;6247289;23;19996;-76
2021/04/05 00:35:21;;;;;;;7.77;2.90;;;8.10;57.30;;;;;;6244845;23;20007;-76
2021/04/05 00:37:50;;;;;;;7.40;3.40;;;8.10;57.40;;;;;;6245439;23;20011;-76
2021/04/05 00:40:20;;;;;;;8.53;2.83;;;8.00;57.30;;;;;;6246139;22;19996;-77
2021/04/05 00:42:46;;;;;;;8.53;3.07;;;7.90;57.40;;;;;;6245441;23;20091;-76
2021/04/05 00:45:15;;;;;;;6.73;2.77;;;7.90;57.80;;;;;;6246723;23;20008;-76
2021/04/05 00:47:44;;;;;;;6.23;2.80;;;7.90;57.90;;;;;;6246313;23;19992;-76
2021/04/05 00:50:11;;;;;;;7.70;3.30;;;7.80;57.90;;;;;;6245296;23;20003;-76
2021/04/05 00:52:37;;;;;;;6.83;2.90;;;7.80;58.10;;;;;;6245786;23;20018;-76
2021/04/05 00:55:06;;;;;;;5.83;3.00;;;7.80;58.00;;;;;;6245621;23;20000;-76
2021/04/05 00:57:33;;;;;;;7.23;3.07;;;7.80;58.10;;;;;;6246528;23;20050;-76
2021/04/05 00:59:59;;;;;;;7.63;3.10;;;7.80;58.20;;;;;;6245446;23;20079;-76
2021/04/05 01:02:25;;;;;;;6.23;2.90;;;7.80;58.30;;;;;;6244774;23;20023;-76
2021/04/05 01:04:50;;;;;;;5.97;2.93;;;7.80;58.50;;;;;;6245451;23;20364;-76
2021/04/05 01:07:16;;;;;;;5.83;2.67;;;7.80;58.50;;;;;;6244951;23;19996;-77
2021/04/05 01:09:42;;;;;;;10.43;3.20;;;7.70;58.60;;;;;;6245205;23;20011;-76
2021/04/05 01:12:08;;;;;;;5.97;3.07;;;7.70;58.60;;;;;;6245546;23;19997;-76
2021/04/05 01:14:33;;;;;;;4.70;2.87;;;7.70;58.80;;;;;;6244644;23;20016;-76
2021/04/05 01:16:59;;;;;;;4.90;3.50;;;7.70;58.80;;;;;;6246916;23;20068;-75
2021/04/05 01:19:25;;;;;;;6.17;2.67;;;7.70;58.80;;;;;;6244724;23;20004;-76
2021/04/05 01:21:51;;;;;;;6.23;2.50;;;7.70;58.90;;;;;;6245902;23;20059;-76
2021/04/05 01:24:16;;;;;;;7.13;2.67;;;7.70;59.10;;;;;;6188972;23;20424;-76
2021/04/05 01:26:42;;;;;;;10.53;2.87;;;7.60;59.40;;;;;;6215832;23;19997;-76
2021/04/05 01:29:08;;;;;;;8.60;3.40;;;7.60;59.50;;;;;;6216311;23;19992;-76
2021/04/05 01:31:34;;;;;;;5.40;2.90;;;7.60;59.70;;;;;;6188949;23;20423;-75
2021/04/05 01:34:00;;;;;;;11.07;3.43;;;7.60;60.10;;;;;;6189974;23;20040;-76
2021/04/05 01:36:26;;;;;;;10.90;2.83;;;7.60;60.30;;;;;;6189216;23;20008;-76
2021/04/05 01:38:53;;;;;;;10.73;3.50;;;7.50;60.50;;;;;;6216359;23;20408;-76
2021/04/05 01:41:21;;;;;;;6.63;2.70;;;7.50;60.60;;;;;;6189107;23;20020;-75
2021/04/05 01:43:46;;;;;;;7.33;3.10;;;7.50;60.90;;;;;;6189062;23;20007;-75
2021/04/05 01:46:15;;;;;;;6.33;2.93;;;7.50;61.00;;;;;;6189389;23;20005;-75
2021/04/05 01:48:42;;;;;;;8.93;3.60;;;7.40;61.10;;;;;;6188270;23;19997;-75
2021/04/05 01:51:14;;;;;;;7.83;3.27;;;7.40;61.20;;;;;;6189554;23;20020;-75
2021/04/05 01:53:41;;;;;;;7.25;2.95;;;7.40;61.30;;;;;;6188702;23;19996;-75
2021/04/05 01:56:10;;;;;;;5.87;3.00;;;7.40;61.30;;;;;;6214380;23;20008;-75
2021/04/05 01:58:38;;;;;;;8.70;3.30;;;7.40;61.50;;;;;;6188545;23;20370;-75
2021/04/05 02:01:10;;;;;;;7.63;3.40;;;7.40;61.80;;;;;;6189099;23;19997;-75
2021/04/05 02:03:36;;;;;;;9.45;3.70;;;7.40;61.70;;;;;;6188609;23;20312;-76
2021/04/05 02:06:06;;;;;;;8.47;3.20;;;7.40;61.60;;;;;;6215635;23;20076;-76
2021/04/05 02:08:32;;;;;;;4.47;2.60;;;7.30;61.40;;;;;;6215115;23;19996;-75
2021/04/05 02:11:08;;;;;;;5.97;2.90;;;7.30;61.50;;;;;;6215660;23;20012;-75
2021/04/05 02:13:34;;;;;;;7.90;2.90;;;7.30;61.50;;;;;;6188466;23;20080;-74
2021/04/05 02:16:01;;;;;;;5.33;2.70;;;7.30;61.60;;;;;;6188980;23;20040;-75
2021/04/05 02:18:28;;;;;;;5.87;3.23;;;7.30;61.60;;;;;;6214964;23;20408;-76
2021/04/05 02:20:54;;;;;;;11.27;3.30;;;7.30;61.90;;;;;;6188608;23;20039;-76
2021/04/05 02:23:20;;;;;;;7.80;3.10;;;7.30;61.90;;;;;;6233771;23;20012;-76
2021/04/05 02:26:08;;;;;;;9.73;3.33;;;7.30;61.80;;;;;;6235145;23;20138;-75
2021/04/05 02:28:45;;;;;;;10.27;3.33;;;7.40;61.90;;;;;;6245296;22;20001;-76
2021/04/05 02:31:13;;;;;;;8.10;3.17;;;7.40;61.60;;;;;;6240757;23;19992;-76
2021/04/05 02:33:40;;;;;;;9.20;3.13;;;7.40;61.60;;;;;;6258143;22;20004;-76
2021/04/05 02:36:08;;;;;;;9.67;2.87;;;7.40;61.20;;;;;;6269950;22;19992;-76
2021/04/05 02:38:39;;;;;;;9.10;3.23;;;7.40;61.20;;;;;;6245461;23;20000;-76
2021/04/05 02:41:06;;;;;;;9.07;3.17;;;7.40;61.00;;;;;;6239196;23;19996;-75
2021/04/05 02:43:33;;;;;;;6.40;3.00;;;7.40;60.80;;;;;;6243473;23;20015;-76
2021/04/05 02:45:59;;;;;;;10.37;3.70;;;7.40;61.10;;;;;;6245523;22;19996;-76
2021/04/05 02:48:28;;;;;;;6.73;2.90;;;7.30;61.10;;;;;;6242597;23;20427;-76
2021/04/05 02:50:54;;;;;;;7.27;2.87;;;7.30;61.20;;;;;;6245994;23;20066;-75
2021/04/05 02:53:20;;;;;;;7.53;2.70;;;7.30;61.30;;;;;;6241537;23;20019;-76
2021/04/05 02:55:46;;;;;;;9.80;2.97;;;7.30;61.70;;;;;;6234988;23;20426;-75
2021/04/05 02:58:12;;;;;;;5.37;2.97;;;7.20;61.90;;;;;;6244309;23;20446;-75
2021/04/05 03:00:38;;;;;;;4.73;2.53;;;7.20;62.10;;;;;;6232527;23;20435;-75
2021/04/05 03:03:05;;;;;;;7.03;3.23;;;7.20;62.20;;;;;;6245750;23;19992;-75
2021/04/05 03:05:32;;;;;;;6.83;3.13;;;7.20;62.40;;;;;;6231274;23;20004;-75
2021/04/05 03:07:58;;;;;;;5.27;3.13;;;7.10;62.40;;;;;;6245810;22;19988;-75
2021/04/05 03:10:29;;;;;;;8.37;2.97;;;7.20;62.60;;;;;;6242033;23;20078;-76
2021/04/05 03:12:57;;;;;;;5.87;2.90;;;7.10;62.40;;;;;;6261798;22;20493;-75
2021/04/05 03:15:25;;;;;;;6.90;2.40;;;7.10;62.70;;;;;;6245030;22;20075;-75
2021/04/05 03:17:55;;;;;;;8.43;3.00;;;7.10;62.80;;;;;;6235706;23;20318;-75
2021/04/05 03:20:23;;;;;;;9.27;3.30;;;7.10;63.30;;;;;;6244825;22;19992;-76
2021/04/05 03:22:49;;;;;;;8.77;3.60;;;7.10;63.30;;;;;;6245492;23;20019;-75
2021/04/05 03:25:18;;;;;;;6.53;2.80;;;7.10;63.50;;;;;;6266160;22;20004;-75
2021/04/05 03:27:45;;;;;;;6.47;3.03;;;7.00;63.70;;;;;;6245241;23;20063;-75
2021/04/05 03:30:13;;;;;;;7.53;2.80;;;7.00;63.70;;;;;;6245353;23;19992;-76
2021/04/05 03:32:41;;;;;;;5.97;2.87;;;7.00;64.00;;;;;;6257670;22;20020;-75
2021/04/05 03:35:12;;;;;;;8.87;2.90;;;7.00;64.00;;;;;;6243908;23;20008;-75
2021/04/05 03:37:41;;;;;;;7.37;3.80;;;7.00;64.20;;;;;;6257586;22;20054;-75
2021/04/05 03:40:08;;;;;;;9.23;3.10;;;7.00;64.00;;;;;;6243708;23;20026;-75
2021/04/05 03:42:40;;;;;;;6.87;3.00;;;7.00;64.30;;;;;;6231011;23;20437;-75
2021/04/05 03:45:12;;;;;;;9.13;3.43;;;7.00;64.30;;;;;;6243883;23;20427;-75
2021/04/05 03:47:44;;;;;;;4.78;3.05;;;7.00;64.50;;;;;;6232361;23;20102;-75
2021/04/05 03:50:27;;;;;;;7.55;3.30;;;7.00;64.60;;;;;;6243515;23;20415;-75
2021/04/05 03:53:16;;;;;;;10.50;3.90;;;7.00;65.10;;;;;;6236158;23;20007;-76
2021/04/05 03:55:44;;;;;;;9.90;3.77;;;7.10;65.70;;;;;;6245292;22;20004;-75
2021/04/05 03:58:12;;;;;;;6.97;3.10;;;7.10;65.30;;;;;;6245614;23;19996;-76
2021/04/05 04:00:41;;;;;;;11.93;3.70;;;7.10;65.30;;;;;;6257699;22;20000;-76
2021/04/05 04:03:11;;;;;;;10.13;3.07;;;7.20;65.40;;;;;;6245223;22;20066;-75
2021/04/05 04:05:44;;;;;;;11.07;3.47;;;7.20;65.20;;;;;;6231651;23;20186;-75
2021/04/05 04:08:28;;;;;;;7.93;3.47;;;7.20;65.10;;;;;;6268677;22;20008;-75
2021/04/05 04:10:57;;;;;;;12.07;3.30;;;7.20;64.90;;;;;;6261483;22;19992;-76
2021/04/05 04:13:24;;;;;;;8.37;3.80;;;7.20;64.50;;;;;;6244749;22;20064;-76
2021/04/05 04:15:51;;;;;;;8.67;3.50;;;7.20;64.30;;;;;;6245053;23;20008;-76
2021/04/05 04:18:18;;;;;;;7.57;2.93;;;7.20;64.30;;;;;;6240273;23;20423;-77
2021/04/05 04:20:45;;;;;;;8.47;3.27;;;7.20;64.30;;;;;;6244999;23;20003;-75
2021/04/05 04:23:12;;;;;;;10.47;3.23;;;7.20;64.20;;;;;;6239118;23;20094;-75
2021/04/05 04:25:39;;;;;;;6.73;3.53;;;7.20;64.40;;;;;;6232008;23;20012;-76
2021/04/05 04:28:05;;;;;;;6.97;3.13;;;7.20;64.40;;;;;;6245186;22;19992;-75
2021/04/05 04:30:31;;;;;;;6.37;3.03;;;7.20;64.50;;;;;;6216885;23;20013;-76
2021/04/05 04:33:01;;;;;;;4.80;2.67;;;7.20;64.60;;;;;;6243835;23;20007;-75
2021/04/05 04:35:27;;;;;;;6.83;3.17;;;7.20;64.60;;;;;;6243406;23;20004;-75
2021/04/05 04:37:53;;;;;;;11.77;3.57;;;7.10;64.50;;;;;;6235514;23;20000;-76
2021/04/05 04:40:26;;;;;;;7.50;3.00;;;7.10;64.70;;;;;;6244493;22;19992;-76
2021/04/05 04:42:55;;;;;;;6.57;2.83;;;7.10;64.50;;;;;;6244858;23;20058;-75
2021/04/05 04:45:21;;;;;;;5.93;2.70;;;7.10;64.70;;;;;;6244348;23;20011;-76
2021/04/05 04:47:49;;;;;;;6.37;3.00;;;7.10;64.70;;;;;;6260025;22;20071;-75
2021/04/05 04:50:16;;;;;;;5.17;2.80;;;7.10;64.60;;;;;;6269062;22;20004;-75
2021/04/05 04:52:42;;;;;;;7.43;2.77;;;7.10;64.80;;;;;;6245100;23;19992;-75
2021/04/05 04:55:09;;;;;;;6.83;2.87;;;7.00;64.70;;;;;;6264351;22;20008;-75
2021/04/05 04:57:34;;;;;;;6.57;2.97;;;7.10;64.90;;;;;;6231105;23;20445;-76
2021/04/05 05:00:00;;;;;;;7.23;3.20;;;7.10;65.10;;;;;;6268992;22;19996;-76
2021/04/05 05:02:28;;;;;;;10.37;3.60;;;7.10;65.30;;;;;;6245825;22;20015;-76
2021/04/05 05:04:54;;;;;;;11.13;4.50;;;7.10;66.10;;;;;;6263093;22;20437;-76
2021/04/05 05:07:22;;;;;;;16.10;4.50;;;7.10;66.40;;;;;;6246311;22;19996;-76
2021/04/05 05:09:48;;;;;;;8.97;4.00;;;7.10;66.70;;;;;;6247006;23;19996;-76
2021/04/05 05:12:15;;;;;;;15.40;4.40;;;7.10;66.70;;;;;;6246596;23;20419;-76
2021/04/05 05:14:40;;;;;;;11.90;4.20;;;7.10;66.70;;;;;;6259467;22;20502;-76
2021/04/05 05:17:06;;;;;;;10.13;4.63;;;7.20;66.80;;;;;;6270838;22;20031;-76
2021/04/05 05:19:37;;;;;;;12.40;4.87;;;7.10;66.70;;;;;;6232323;23;20106;-75
2021/04/05 05:22:04;;;;;;;11.30;5.30;;;7.20;66.80;;;;;;6244929;23;20013;-75
2021/04/05 05:24:31;;;;;;;14.27;5.93;;;7.30;66.80;;;;;;6218954;23;20008;-77
2021/04/05 05:26:58;;;;;;;13.43;4.93;;;7.30;66.90;;;;;;6219786;23;20004;-76
2021/04/05 05:29:24;;;;;;;16.33;5.50;;;7.30;66.50;;;;;;6245879;23;20000;-76
2021/04/05 05:31:50;;;;;;;16.00;5.60;;;7.40;66.80;;;;;;6219983;23;20087;-76
2021/04/05 05:34:18;;;;;;;15.50;5.63;;;7.40;66.60;;;;;;6245998;23;20023;-77
2021/04/05 05:36:45;;;;;;;14.33;5.37;;;7.50;66.30;;;;;;6246539;23;20003;-76
2021/04/05 05:39:13;;;;;;;13.23;5.17;;;7.50;66.30;;;;;;6246451;23;20407;-76
2021/04/05 05:41:41;;;;;;;15.80;4.80;;;7.50;66.10;;;;;;6245695;23;19992;-76
2021/04/05 05:44:26;;;;;;;15.73;4.77;;;7.50;65.90;;;;;;6246610;23;20061;-76
2021/04/05 05:47:02;;;;;;;12.60;5.43;;;7.60;66.10;;;;;;6219562;23;20005;-76
2021/04/05 05:49:43;;;;;;;17.37;5.23;;;7.60;65.70;;;;;;6245834;23;19996;-76
2021/04/05 05:52:30;;;;;;;13.50;5.03;;;7.60;65.80;;;;;;6246445;23;19992;-76
2021/04/05 05:55:26;;;;;;;12.80;5.63;;;7.60;66.50;;;;;;6219814;23;20004;-76
2021/04/05 05:58:20;;;;;;;14.37;6.17;;;7.70;65.80;;;;;;6219321;23;20000;-75
2021/04/05 06:00:56;;;;;;;22.13;6.93;;;7.70;65.70;;;;;;6219543;23;20415;-76
2021/04/05 06:03:45;;;;;;;17.27;5.83;;;7.80;65.50;;;;;;6218549;23;20238;-76
2021/04/05 06:06:21;;;;;;;17.43;6.23;;;7.80;65.30;;;;;;6219425;23;20452;-76
2021/04/05 06:09:02;;;;;;;16.87;6.17;;;7.80;65.20;;;;;;6246267;23;20019;-75
2021/04/05 06:11:39;;;;;;;16.33;6.47;;;7.80;65.20;;;;;;6243838;23;20032;-76
2021/04/05 06:14:30;;;;;;;15.00;6.70;;;7.80;65.10;;;;;;6219275;23;20000;-76
2021/04/05 06:17:08;;;;;;;19.40;6.13;;;7.80;65.10;;;;;;6219148;23;20058;-76
2021/04/05 06:19:56;;;;;;;14.17;6.40;;;7.90;64.90;;;;;;6232228;23;20008;-76
2021/04/05 06:22:37;;;;;;;15.57;6.13;;;7.90;64.80;;;;;;6219898;23;20016;-77
2021/04/05 06:25:47;;;;;;;19.63;7.03;;;7.90;64.70;;;;;;6244677;23;20008;-76
2021/04/05 06:29:12;;;;;;;15.63;6.10;;;7.90;64.50;;;;;;6178316;23;19996;-76
2021/04/05 06:31:57;;;;;;;13.40;5.70;;;7.90;64.10;;;;;;6152492;23;19997;-77
2021/04/05 06:34:50;;;;;;;12.93;5.43;;;8.00;64.20;;;;;;6152011;23;20452;-77
2021/04/05 06:37:38;;;;;;;19.53;6.30;;;8.00;63.90;;;;;;6153114;23;20499;-77
2021/04/05 06:40:07;;;;;;;14.00;6.03;;;8.00;63.80;;;;;;6153326;23;19998;-76
2021/04/05 06:42:57;;;;;;;19.47;6.20;;;8.00;64.00;;;;;;6152223;23;20001;-76
2021/04/05 06:45:28;;;;;;;14.83;5.83;;;8.10;63.60;;;;;;6152100;23;20018;-77
2021/04/05 06:48:05;;;;;;;18.20;5.90;;;8.10;63.80;;;;;;6152904;23;19998;-76
2021/04/05 06:51:00;;;;;;;19.60;7.00;;;8.10;63.70;;;;;;6152226;23;20009;-77
2021/04/05 06:53:38;;;;;;;19.27;5.97;;;8.20;63.70;;;;;;6152319;23;20001;-77
2021/04/05 06:56:25;;;;;;;14.97;5.97;;;8.20;63.30;;;;;;6153084;23;20508;-77
2021/04/05 06:59:09;;;;;;;14.83;6.17;;;8.20;63.30;;;;;;6153050;23;19993;-77
2021/04/05 07:02:26;;;;;;;15.70;6.47;;;8.20;63.30;;;;;;6165771;23;20008;-77
2021/04/05 07:05:08;;;;;;;14.23;5.67;;;8.20;63.10;;;;;;6127885;23;20016;-76
2021/04/05 07:08:01;;;;;;;14.02;5.53;;;8.30;62.50;;;;;;6244814;23;20430;-77
2021/04/05 07:10:31;;;;;;;15.60;5.13;;;8.30;62.50;;;;;;6243032;23;20030;-76
2021/04/05 07:13:20;;;;;;;19.87;5.60;;;8.30;62.10;;;;;;6245128;23;20000;-76
2021/04/05 07:15:58;;;;;;;15.90;5.70;;;8.30;61.90;;;;;;6245240;23;20079;-76
2021/04/05 07:19:01;;;;;;;14.47;5.60;;;8.30;62.00;;;;;;6243147;23;19996;-76
2021/04/05 07:21:48;;;;;;;11.40;5.72;;;8.30;61.80;;;;;;6241714;23;20477;-76
2021/04/05 07:24:21;;;;;;;12.73;5.57;;;8.30;62.10;;;;;;6244330;23;20012;-75
2021/04/05 07:26:59;;;;;;;15.10;6.00;;;8.30;62.20;;;;;;6243843;23;19996;-76
2021/04/05 07:29:33;;;;;;;15.90;6.07;;;8.30;62.60;;;;;;6244150;23;20333;-75
2021/04/05 07:32:18;;;;;;;16.47;6.70;;;8.30;63.00;;;;;;6245281;23;19988;-75
2021/04/05 07:35:02;;;;;;;14.90;6.03;;;8.30;63.30;;;;;;6243678;23;20010;-76
2021/04/05 07:37:48;;;;;;;18.53;7.93;;;8.30;63.10;;;;;;6244321;23;20020;-77
2021/04/05 07:40:51;;;;;;;20.27;7.53;;;8.40;63.60;;;;;;6243623;23;20477;-76
2021/04/05 07:43:43;;;;;;;22.90;7.53;;;8.40;63.70;;;;;;6242804;22;20000;-77
2021/04/05 07:46:21;;;;;;;30.35;8.68;;;8.50;64.30;;;;;;6244011;23;20004;-76
2021/04/05 07:49:09;;;;;;;24.67;8.97;;;8.50;64.60;;;;;;6245348;23;20007;-76
2021/04/05 07:51:46;;;;;;;21.50;8.80;;;8.60;64.90;;;;;;6243103;23;20004;-77
2021/04/05 07:54:13;;;;;;;23.23;8.57;;;8.60;64.90;;;;;;6269578;22;20050;-76
2021/04/05 07:56:52;;;;;;;24.73;9.85;;;8.60;64.90;;;;;;6242940;23;20022;-77
2021/04/05 07:59:36;;;;;;;25.73;9.10;;;8.70;64.50;;;;;;6244426;23;20000;-76
2021/04/05 08:02:24;;;;;;;23.52;8.60;;;8.70;63.80;;;;;;6243598;23;20442;-74
2021/04/05 08:05:16;;;;;;;23.97;9.27;;;8.70;63.90;;;;;;6245061;23;20007;-76
2021/04/05 08:07:54;;;;;;;25.10;9.73;;;8.70;64.20;;;;;;6243423;23;19996;-78
2021/04/05 08:10:38;;;;;;;29.63;9.75;;;8.80;64.20;;;;;;6242439;22;20000;-79
2021/04/05 08:13:21;;;;;;;21.90;9.10;;;8.80;63.80;;;;;;6268923;22;20445;-77
2021/04/05 08:16:18;;;;;;;21.77;9.27;;;8.80;63.20;;;;;;6269303;22;20008;-77
2021/04/05 08:18:52;;;;;;;20.15;8.15;;;8.80;63.20;;;;;;6243801;23;20008;-78
2021/04/05 08:21:22;;;;;;;23.20;8.33;;;8.90;63.50;;;;;;6242481;23;20087;-77
2021/04/05 08:24:09;;;;;;;19.85;8.23;;;8.90;63.10;;;;;;6243829;23;20047;-77
2021/04/05 08:26:56;;;;;;;19.08;8.30;;;9.00;63.20;;;;;;6244383;23;20000;-79
2021/04/05 08:29:40;;;;;;;20.60;7.75;;;9.00;63.10;;;;;;6244563;23;20064;-78
2021/04/05 08:32:30;;;;;;;21.05;8.40;;;9.10;62.50;;;;;;6245157;23;19996;-77
2021/04/05 08:35:15;;;;;;;23.00;7.75;;;9.20;62.60;;;;;;6244355;23;20000;-77
2021/04/05 08:38:14;;;;;;;23.38;8.07;;;9.20;62.60;;;;;;6244339;23;20000;-75
2021/04/05 08:41:09;;;;;;;20.55;7.60;;;9.30;62.30;;;;;;6244729;23;20000;-77
2021/04/05 08:43:50;;;;;;;20.27;7.43;;;9.40;61.90;;;;;;6226805;23;20038;-79
2021/04/05 08:46:21;;;;;;;20.60;7.65;;;9.40;61.50;;;;;;6245433;22;20008;-75
2021/04/05 08:48:52;;;;;;;21.80;8.30;;;9.40;61.00;;;;;;6244916;23;20070;-75
2021/04/05 08:51:28;;;;;;;27.80;7.95;;;9.50;60.60;;;;;;6246921;23;20525;-76
2021/04/05 08:53:59;;;;;;;22.08;7.43;;;9.60;60.30;;;;;;6247089;23;20284;-77
2021/04/05 08:56:29;;;;;;;23.95;8.20;;;9.60;59.80;;;;;;6245979;23;20008;-76
2021/04/05 08:59:08;;;;;;;19.65;8.40;;;9.70;59.70;;;;;;6247086;23;20003;-77
2021/04/05 09:02:14;;;;;;;22.92;7.57;;;9.80;59.50;;;;;;6246033;23;20042;-77
2021/04/05 09:04:43;;;;;;;20.63;7.65;;;9.90;59.30;;;;;;6246675;23;20000;-79
2021/04/05 09:07:53;;;;;;;16.88;6.97;;;9.90;58.80;;;;;;6270831;22;20018;-76
2021/04/05 09:10:28;;;;;;;19.92;6.50;;;10.00;58.40;;;;;;6153126;23;19997;-75
2021/04/05 09:12:57;;;;;;;21.73;7.03;;;10.10;58.50;;;;;;6129074;23;20005;-75
2021/04/05 09:15:31;;;;;;;15.32;6.72;;;10.20;57.90;;;;;;6194679;23;20015;-75
2021/04/05 09:18:23;;;;;;;24.17;7.30;;;10.30;57.20;;;;;;6246467;23;19996;-76
2021/04/05 09:21:01;;;;;;;20.73;6.80;;;10.40;57.10;;;;;;6198472;23;20091;-75
2021/04/05 09:23:55;;;;;;;21.35;6.97;;;10.40;56.60;;;;;;6242442;22;20505;-74
2021/04/05 09:26:33;;;;;;;14.98;6.85;;;10.40;56.70;;;;;;6243685;23;20023;-75
2021/04/05 09:29:18;;;;;;;17.30;6.72;;;10.40;56.70;;;;;;6245408;23;20004;-75
2021/04/05 09:32:03;;;;;;;18.60;7.20;;;10.50;56.40;;;;;;6243651;23;20035;-74
2021/04/05 09:34:56;;;;;;;15.68;7.13;;;10.50;56.20;;;;;;6244581;23;19996;-74
2021/04/05 09:37:43;;;;;;;16.23;6.28;;;10.50;55.90;;;;;;6244327;23;20004;-76
2021/04/05 09:40:20;;;;;;;15.02;6.00;;;10.60;55.90;;;;;;6246922;23;19996;-76
2021/04/05 09:42:52;;;;;;;21.67;7.00;;;10.60;55.70;;;;;;6246360;23;20131;-77
2021/04/05 09:45:43;;;;;;;17.58;6.65;;;10.60;55.20;;;;;;6244649;23;20012;-73
2021/04/05 09:48:44;;;;;;;16.10;6.40;;;10.60;55.30;;;;;;6245209;23;20015;-76
2021/04/05 09:52:01;;;;;;;15.18;6.20;;;10.60;55.30;;;;;;6244290;23;20086;-75
2021/04/05 09:54:34;;;;;;;16.27;5.90;;;10.70;55.00;;;;;;6177477;23;20004;-75
2021/04/05 09:57:07;;;;;;;15.82;6.57;;;10.80;55.60;;;;;;6246310;23;20004;-76
2021/04/05 09:59:52;;;;;;;18.75;6.60;;;10.80;55.70;;;;;;6244088;23;20015;-73
2021/04/05 10:02:35;;;;;;;14.23;6.13;;;10.90;54.90;;;;;;6245666;23;19996;-75
2021/04/05 10:05:02;;;;;;;18.00;6.90;;;11.00;54.90;;;;;;6244605;23;20008;-75
2021/04/05 10:07:29;;;;;;;19.27;7.30;;;11.00;54.80;;;;;;6243669;23;20008;-74
2021/04/05 10:10:00;;;;;;;15.45;6.57;;;11.00;55.50;;;;;;6244410;23;20062;-74
2021/04/05 10:12:29;;;;;;;21.50;7.10;;;10.90;55.30;;;;;;6245125;23;20000;-75
2021/04/05 10:14:56;;;;;;;19.83;6.43;;;10.80;55.50;;;;;;6244138;23;20008;-75
2021/04/05 10:17:25;;;;;;;17.55;6.90;;;10.70;55.80;;;;;;6244766;23;20095;-76
2021/04/05 10:19:55;;;;;;;22.48;6.50;;;10.60;56.30;;;;;;6246425;23;19996;-76
2021/04/05 10:22:21;;;;;;;16.08;6.13;;;10.50;56.80;;;;;;6268425;22;20098;-76
2021/04/05 10:24:51;;;;;;;14.48;7.15;;;10.50;57.10;;;;;;6244334;23;20000;-75
2021/04/05 10:27:24;;;;;;;20.20;6.65;;;10.50;57.30;;;;;;6246045;23;20000;-77
2021/04/05 10:29:53;;;;;;;19.80;6.63;;;10.60;57.60;;;;;;6244293;23;20050;-76
2021/04/05 10:32:22;;;;;;;18.13;6.90;;;10.60;57.60;;;;;;6243525;23;20004;-75
2021/04/05 10:34:59;;;;;;;19.73;6.55;;;10.60;57.80;;;;;;6245909;23;20031;-76
2021/04/05 10:37:31;;;;;;;16.05;6.78;;;10.70;57.40;;;;;;6269285;22;20126;-76
2021/04/05 10:39:58;;;;;;;16.45;6.90;;;10.70;57.90;;;;;;6271219;22;20446;-76
2021/04/05 10:42:33;;;;;;;17.65;6.45;;;10.60;58.30;;;;;;6245179;23;20075;-76
2021/04/05 10:45:07;;;;;;;16.33;6.55;;;10.60;58.10;;;;;;6244614;23;20016;-76
2021/04/05 10:47:46;;;;;;;17.48;6.85;;;10.70;58.40;;;;;;6269321;22;20022;-77
2021/04/05 10:50:12;;;;;;;18.77;6.53;;;10.60;58.10;;;;;;6245654;23;20000;-77
2021/04/05 10:52:43;;;;;;;21.58;7.88;;;10.60;58.40;;;;;;6243070;23;20004;-75
2021/04/05 10:55:29;;;;;;;15.02;6.75;;;10.60;58.70;;;;;;6245466;23;20004;-74
2021/04/05 10:57:59;;;;;;;15.95;6.80;;;10.70;58.70;;;;;;6243667;23;20004;-74
2021/04/05 11:00:33;;;;;;;16.33;6.78;;;10.70;58.20;;;;;;6244666;23;20000;-73
2021/04/05 11:03:23;;;;;;;13.48;6.10;;;10.70;57.70;;;;;;6243566;23;20012;-74
2021/04/05 11:05:56;;;;;;;15.77;5.72;;;10.60;57.40;;;;;;6245114;23;20434;-75
2021/04/05 11:08:26;;;;;;;18.85;6.35;;;10.50;57.90;;;;;;6268410;22;20385;-74
2021/04/05 11:11:12;;;;;;;15.63;6.57;;;10.50;58.20;;;;;;6243168;23;20012;-74
2021/04/05 11:13:53;;;;;;;15.02;6.18;;;10.60;58.10;;;;;;6242527;23;20012;-74
2021/04/05 11:16:22;;;;;;;13.95;5.97;;;10.60;57.80;;;;;;6244636;23;20011;-74
2021/04/05 11:18:53;;;;;;;17.30;6.70;;;10.60;57.60;;;;;;6243476;23;20004;-74
2021/04/05 11:21:31;;;;;;;20.50;6.93;;;10.60;57.50;;;;;;6244465;23;19996;-74
2021/04/05 11:23:58;;;;;;;15.57;6.45;;;10.50;57.50;;;;;;6243249;23;20020;-75
2021/04/05 11:26:32;;;;;;;14.25;5.90;;;10.50;57.70;;;;;;6242678;23;20004;-72
2021/04/05 11:29:03;;;;;;;19.05;7.15;;;10.50;57.90;;;;;;6245496;22;20022;-74
2021/04/05 11:31:44;;;;;;;16.02;6.00;;;10.40;58.40;;;;;;6243143;23;20008;-73
2021/04/05 11:34:10;;;;;;;19.20;6.55;;;10.50;58.30;;;;;;6243923;23;20008;-73
2021/04/05 11:36:47;;;;;;;15.60;6.82;;;10.40;58.30;;;;;;6244291;23;20035;-73
2021/04/05 11:39:16;;;;;;;15.48;6.22;;;10.40;58.30;;;;;;6243446;23;20004;-74
2021/04/05 11:41:45;;;;;;;15.80;6.57;;;10.40;58.40;;;;;;6244396;23;20462;-73
2021/04/05 11:44:17;;;;;;;15.00;6.82;;;10.40;58.60;;;;;;6244592;23;20008;-73
2021/04/05 11:46:47;;;;;;;13.43;6.85;;;10.30;58.20;;;;;;6243504;23;20016;-74
2021/04/05 11:49:17;;;;;;;17.80;6.88;;;10.30;58.50;;;;;;6243400;23;20041;-74
2021/04/05 11:51:47;;;;;;;12.60;5.85;;;10.20;58.50;;;;;;6244663;23;20115;-74
2021/04/05 11:54:41;;;;;;;14.45;6.13;;;10.20;58.60;;;;;;6244847;23;20015;-73
2021/04/05 11:57:13;;;;;;;14.95;5.57;;;10.30;58.30;;;;;;6244959;23;19992;-74
2021/04/05 12:00:03;;;;;;;11.30;5.55;;;10.20;58.10;;;;;;6243982;23;20465;-73
2021/04/05 12:02:58;;;;;;;11.77;5.60;;;10.20;58.00;;;;;;6233845;23;20016;-74
2021/04/05 12:05:29;;;;;;;15.27;6.15;;;10.20;58.10;;;;;;6242763;23;20001;-76
2021/04/05 12:08:19;;;;;;;13.63;5.78;;;10.30;58.00;;;;;;6243314;23;20435;-74
2021/04/05 12:10:47;;;;;;;15.35;6.18;;;10.30;57.50;;;;;;6246591;23;19992;-74
2021/04/05 12:13:22;;;;;;;14.20;5.53;;;10.30;57.40;;;;;;6245126;23;20394;-77
2021/04/05 12:15:54;;;;;;;13.50;5.10;;;10.20;57.30;;;;;;6245701;23;20549;-74
2021/04/05 12:18:23;;;;;;;9.65;4.82;;;10.30;57.20;;;;;;6244523;23;20011;-74
2021/04/05 12:20:57;;;;;;;11.07;4.72;;;10.20;57.40;;;;;;6245282;23;20004;-74
2021/04/05 12:23:23;;;;;;;11.27;4.45;;;10.30;57.50;;;;;;6245823;23;20016;-73
2021/04/05 12:25:51;;;;;;;10.95;4.82;;;10.30;57.50;;;;;;6270722;22;20008;-74
2021/04/05 12:28:18;;;;;;;10.68;4.35;;;10.30;57.30;;;;;;6245414;23;20004;-74
2021/04/05 12:30:45;;;;;;;8.40;4.53;;;10.20;57.50;;;;;;6245433;23;20027;-73
2021/04/05 12:33:15;;;;;;;9.50;4.10;;;10.30;57.70;;;;;;6245483;23;20001;-74
2021/04/05 12:35:42;;;;;;;11.30;4.65;;;10.30;57.70;;;;;;6246200;22;20075;-73
2021/04/05 12:38:10;;;;;;;12.20;4.10;;;10.30;57.70;;;;;;6244892;23;20063;-73
2021/04/05 12:40:38;;;;;;;13.13;3.90;;;10.20;57.90;;;;;;6243270;23;20010;-73
2021/04/05 12:43:14;;;;;;;11.50;5.10;;;10.20;58.40;;;;;;6244745;23;20012;-74
2021/04/05 12:45:52;;;;;;;14.80;4.32;;;10.20;58.40;;;;;;6244427;23;20012;-74
2021/04/05 12:48:26;;;;;;;10.43;4.50;;;10.00;58.70;;;;;;6244870;23;20015;-74
2021/04/05 12:51:06;;;;;;;12.57;4.95;;;10.10;58.80;;;;;;6245156;23;20047;-73
2021/04/05 12:53:34;;;;;;;11.05;5.40;;;10.10;59.20;;;;;;6245878;22;20027;-73
2021/04/05 12:56:00;;;;;;;11.68;5.07;;;10.00;59.50;;;;;;6245020;23;20031;-73
2021/04/05 12:58:32;;;;;;;11.07;4.78;;;10.00;59.70;;;;;;6245314;23;20004;-74
2021/04/05 13:00:58;;;;;;;9.95;4.60;;;9.90;60.20;;;;;;6270233;22;20008;-74
2021/04/05 13:03:23;;;;;;;14.60;4.82;;;10.00;60.00;;;;;;6269764;22;20446;-74
2021/04/05 13:06:05;;;;;;;12.25;4.95;;;10.00;60.20;;;;;;6244504;22;20074;-74
2021/04/05 13:08:49;;;;;;;10.20;4.65;;;10.00;61.00;;;;;;6244220;23;20004;-74
2021/04/05 13:11:31;;;;;;;12.55;5.25;;;9.90;62.40;;;;;;6245027;23;20063;-73
2021/04/05 13:13:59;;;;;;;10.00;4.97;;;9.80;64.00;;;;;;6246645;23;20059;-73
2021/04/05 13:16:35;;;;;;;11.05;5.00;;;9.70;64.80;;;;;;6269629;22;20004;-73
2021/04/05 13:19:13;;;;;;;9.73;5.70;;;9.70;65.50;;;;;;6244916;23;20008;-74
2021/04/05 13:21:40;;;;;;;12.88;4.95;;;9.70;66.70;;;;;;6245116;22;20000;-74
2021/04/05 13:24:11;;;;;;;11.10;5.25;;;9.60;66.30;;;;;;6244648;23;20103;-74